Robert Gray Army Air Field Airport
KGRK : rendu visible

Aérodrome :











RETROUVEZ-NOUS SUR...

 
LOGIN :

S'inscrire | Disclaimer

   EN    FR    IT 

 









Légende :    VFR   VFR Marginal   IFR   IFR Intensif   IFR Très Intensif
Visi : 
Plafond : 
>= 8 km
>= 3000ft
5 à 8 km
1000 à 3000 ft
1500m à 5 km
500 à 1000 ft
800 à 1500m
200 à 500 ft
< 800m
< 200 ft
Symboles :   Orages  Brouillard  Fortes neiges  Fortes précipitations  Vent > 20 kt






- Altitude de l'aérodrome : 1015 ft
- Code IATA : GRK


KGRK - Robert Gray Army Air Field

DERNIER METAR :
  • 281226Z AUTO 19006KT 9SM -RA BKN140 21/19 A2974 RMK AO2 VIS 1/4 RWY33 LTG DSNT N RAB26 SLP061

METARs EXPIRÉS :
  • 281158Z AUTO 16005KT 10SM OVC140 22/19 A2972 RMK AO2 SLP054 T02160194 10225 20214 53007
  • 281058Z AUTO 18009KT 10SM BKN140 22/20 A2972 RMK AO2 SLP053 T02150196
  • 280958Z AUTO 16010KT 10SM BKN160 BKN180 22/20 A2969 RMK AO2 SLP043 T02160195

TAF AMD TAF KGRK
Valide du 28 à 11h jusqu'au 29 à 14h UTC


281100Z 2811/2914 19009KT 9999 BKN150 QNH2963INS
BECMG 2813/2814 30020G25KT 9999 SCT100 QNH2980INS
BECMG 2818/2819 30010G15KT 9999 FEW120 QNH2982INS
BECMG 2900/2901 VRB06KT 9999 SKC QNH2985INS TX27/2820Z TN12/2908Z



MET'MAP, la Météo Aéronautique d'un coup d'oeil ! - Copyright ORBIFLY Décembre 2007 - Disclaimer

ORBIFLY MET'MAP TEAM :

Programmation & Développement : Alexandra Zaïnal
Sur une idée originale de : Baudouin d'Aumeries
Assistance à la programmation : Marc-Olivier Méhu
Soutien technique & logistique : Manuel Goepfert

Contact : metmap@orbifly.com




SOURCES & CREDITS :

   NOAA       Earth
Advisory